Charlotte Amalie, VI

3:31 AM AST on August 23, 2014 (GMT -0400)
NorthSide | Change Station
CLOSE
Current Station
Personal Weather Station
Location: St Thomas, VI
Elevation: 728 ft
Nearby Weather Stations

Elev 728 ft 18.36 °N, 64.94 °W | Updated 10 seconds ago

Heavy Rain
Heavy Rain
75.2 °F
Feels Like 73 °F
N
1.0
Wind Variable Wind from North
Gusts 14.0 mph

Today
High -- | Low -- °F
--% Chance of Precip.
Yesterday
High -- | Low -- °F
Precip. -- in
6:03 AM 6:40 PM
Waning Crescent, 5% visible
Pressure 29.91 in
Visibility -9999.0 miles
Clouds Few 1600 ft
Mostly Cloudy 2800 ft
Overcast 6500 ft
Heat Index 73 °F
Dew Point 74 °F
Humidity 97%
Rainfall 0.91 in
Snow Depth Not available.
UV 0 out of 12
Pollen Not available.
Air Quality Not available.
Flu Activity Not available.
SPECI TIST 230541Z 16013G26KT +RA FEW016 BKN028 OVC065 24/24 A2991 RM K AO2 PK WND 18026/0533 RAB00E18B20 P0043 T02440239 $

More Conditions Fewer Conditions

Pressure 29.91 in
Visibility -9999.0 miles
Clouds Few 1600 ft
Mostly Cloudy 2800 ft
Overcast 6500 ft
Heat Index 73 °F
Dew Point 74 °F
Humidity 97%
Rainfall 0.91 in
Snow Depth Not available.
UV 0 out of 12
Pollen Not available.
Air Quality Not available.
Flu Activity Not available.
SPECI TIST 230541Z 16013G26KT +RA FEW016 BKN028 OVC065 24/24 A2991 RM K AO2 PK WND 18026/0533 RAB00E18B20 P0043 T02440239 $

More Conditions Fewer Conditions

Nowcast | as of 2:51 am AST on August 23, 2014

Numerous showers and isolated thunderstorms over the Caribbean Sea will continue to move onshore over Puerto Rico and the U.S. Virgin Islands on strong southeast flow. Showers will be fast movers but there will be repeated activity over the same areas. Showers will be capable of producing half inch of rain per hour...ponding of water on roadways...reduced visibilities and frequent lightning.

×

10-Day Weather Forecast

Almanac

Astronomy

Aug. 23, 2014 Rise Set
Actual Time 6:03 AM AST 6:40 PM AST
Civil Twilight 5:41 AM AST 7:03 PM AST
Nautical Twilight 5:14 AM AST 7:29 PM AST
Astronomical Twilight 4:48 AM AST 7:55 PM AST
Moon 4:21 AM AST 5:20 PM AST
Length of Visible Light 13h 22m
Length of Day
12h 37m
Tomorrow will be 0m 58s shorter.
Waning Crescent, 5% of the Moon is Illuminated
Today
Waning Crescent
Aug 25
New
Sep 2
First Quarter
Sep 8
Full
Sep 15
Last Quarter

Community

WunderPhotos

Upload Photos

1,746,377 photos uploaded!

WunderBlogs® & News

By Dr. Jeff Masters
Director of Meteorology, Weather Underground
By Kari Strenfel
Meteorologist, Weather Underground
By Christopher C. Burt
Weather Historian, Weather Underground
August 23, 2014
August 23, 2014
August 22, 2014

Nearby

Snow Depth

Station Depth Elevation
No new snow has been reported.

Earthquake Activity

City Distance Mag. Time & Date
No recent earthquake activity has been reported nearby.
Minimum magnitude displayed is 2.5.

Coastal Water Temperatures

Place Temperature
Yabucoa Harbor, PR 79.0 °F
Esperanza, PR 82.9 °F
Charlotte Amalie, VI 84.0 °F

Nearby Weather Stations